sensor_id;sensor_type;location;lat;lon;timestamp;P1;durP1;ratioP1;P2;durP2;ratioP2
15716;SDS011;7960;50.908;4.204;2023-08-07T00:01:08;7.03;;;2.70;;
15716;SDS011;7960;50.908;4.204;2023-08-07T00:03:35;7.00;;;2.47;;
15716;SDS011;7960;50.908;4.204;2023-08-07T00:06:03;5.13;;;2.80;;
15716;SDS011;7960;50.908;4.204;2023-08-07T00:08:30;5.53;;;2.80;;
15716;SDS011;7960;50.908;4.204;2023-08-07T00:11:04;5.43;;;2.57;;
15716;SDS011;7960;50.908;4.204;2023-08-07T00:13:31;7.97;;;2.63;;
15716;SDS011;7960;50.908;4.204;2023-08-07T00:15:58;5.20;;;2.47;;
15716;SDS011;7960;50.908;4.204;2023-08-07T00:18:25;8.23;;;2.67;;
15716;SDS011;7960;50.908;4.204;2023-08-07T00:20:52;6.30;;;2.63;;
15716;SDS011;7960;50.908;4.204;2023-08-07T00:23:20;8.03;;;2.87;;
15716;SDS011;7960;50.908;4.204;2023-08-07T00:25:47;4.33;;;2.40;;
15716;SDS011;7960;50.908;4.204;2023-08-07T00:28:14;6.43;;;2.70;;
15716;SDS011;7960;50.908;4.204;2023-08-07T00:30:41;6.27;;;2.63;;
15716;SDS011;7960;50.908;4.204;2023-08-07T00:33:08;9.37;;;3.10;;
15716;SDS011;7960;50.908;4.204;2023-08-07T00:35:35;6.47;;;2.90;;
15716;SDS011;7960;50.908;4.204;2023-08-07T00:38:02;3.80;;;2.40;;
15716;SDS011;7960;50.908;4.204;2023-08-07T00:40:36;8.90;;;2.80;;
15716;SDS011;7960;50.908;4.204;2023-08-07T00:43:04;5.43;;;2.60;;
15716;SDS011;7960;50.908;4.204;2023-08-07T00:45:32;6.50;;;2.97;;
15716;SDS011;7960;50.908;4.204;2023-08-07T00:48:03;9.27;;;3.37;;
15716;SDS011;7960;50.908;4.204;2023-08-07T00:50:31;7.97;;;2.93;;
15716;SDS011;7960;50.908;4.204;2023-08-07T00:52:58;4.33;;;2.73;;
15716;SDS011;7960;50.908;4.204;2023-08-07T00:55:26;6.90;;;2.97;;
15716;SDS011;7960;50.908;4.204;2023-08-07T00:57:55;4.90;;;2.87;;
15716;SDS011;7960;50.908;4.204;2023-08-07T01:00:22;10.57;;;2.30;;
15716;SDS011;7960;50.908;4.204;2023-08-07T01:02:49;5.10;;;2.77;;
15716;SDS011;7960;50.908;4.204;2023-08-07T01:05:18;3.90;;;2.60;;
15716;SDS011;7960;50.908;4.204;2023-08-07T01:07:46;7.13;;;2.77;;
15716;SDS011;7960;50.908;4.204;2023-08-07T01:10:16;6.43;;;2.37;;
15716;SDS011;7960;50.908;4.204;2023-08-07T01:12:46;7.50;;;2.70;;
15716;SDS011;7960;50.908;4.204;2023-08-07T01:15:22;8.17;;;3.20;;
15716;SDS011;7960;50.908;4.204;2023-08-07T01:17:54;4.63;;;2.77;;
15716;SDS011;7960;50.908;4.204;2023-08-07T01:20:22;5.10;;;2.30;;
15716;SDS011;7960;50.908;4.204;2023-08-07T01:22:51;5.97;;;2.47;;
15716;SDS011;7960;50.908;4.204;2023-08-07T01:25:18;6.03;;;2.40;;
15716;SDS011;7960;50.908;4.204;2023-08-07T01:27:46;6.60;;;2.53;;
15716;SDS011;7960;50.908;4.204;2023-08-07T01:30:21;6.53;;;2.57;;
15716;SDS011;7960;50.908;4.204;2023-08-07T01:32:54;7.27;;;2.87;;
15716;SDS011;7960;50.908;4.204;2023-08-07T01:35:26;6.50;;;2.57;;
15716;SDS011;7960;50.908;4.204;2023-08-07T01:37:57;6.30;;;3.03;;
15716;SDS011;7960;50.908;4.204;2023-08-07T01:40:26;5.40;;;2.40;;
15716;SDS011;7960;50.908;4.204;2023-08-07T01:42:54;3.90;;;2.40;;
15716;SDS011;7960;50.908;4.204;2023-08-07T01:45:22;7.10;;;2.73;;
15716;SDS011;7960;50.908;4.204;2023-08-07T01:47:50;3.43;;;2.53;;
15716;SDS011;7960;50.908;4.204;2023-08-07T01:50:17;3.40;;;2.43;;
15716;SDS011;7960;50.908;4.204;2023-08-07T01:52:44;3.97;;;2.57;;
15716;SDS011;7960;50.908;4.204;2023-08-07T01:55:13;5.60;;;2.37;;
15716;SDS011;7960;50.908;4.204;2023-08-07T01:57:41;5.53;;;2.63;;
15716;SDS011;7960;50.908;4.204;2023-08-07T02:00:08;4.67;;;2.40;;
15716;SDS011;7960;50.908;4.204;2023-08-07T02:02:36;4.90;;;2.60;;
15716;SDS011;7960;50.908;4.204;2023-08-07T02:05:04;5.90;;;2.60;;
15716;SDS011;7960;50.908;4.204;2023-08-07T02:07:31;7.83;;;2.60;;
15716;SDS011;7960;50.908;4.204;2023-08-07T02:09:58;8.77;;;2.80;;
15716;SDS011;7960;50.908;4.204;2023-08-07T02:12:27;7.20;;;2.00;;
15716;SDS011;7960;50.908;4.204;2023-08-07T02:14:57;5.67;;;2.53;;
15716;SDS011;7960;50.908;4.204;2023-08-07T02:17:24;6.00;;;2.20;;
15716;SDS011;7960;50.908;4.204;2023-08-07T02:19:51;5.27;;;2.40;;
15716;SDS011;7960;50.908;4.204;2023-08-07T02:22:18;6.60;;;2.80;;
15716;SDS011;7960;50.908;4.204;2023-08-07T02:24:45;8.03;;;2.47;;
15716;SDS011;7960;50.908;4.204;2023-08-07T02:27:12;5.23;;;2.37;;
15716;SDS011;7960;50.908;4.204;2023-08-07T02:29:40;6.80;;;2.67;;
15716;SDS011;7960;50.908;4.204;2023-08-07T02:32:07;4.07;;;2.30;;
15716;SDS011;7960;50.908;4.204;2023-08-07T02:34:38;4.30;;;2.30;;
15716;SDS011;7960;50.908;4.204;2023-08-07T02:37:05;4.70;;;2.53;;
15716;SDS011;7960;50.908;4.204;2023-08-07T02:39:32;5.57;;;2.67;;
15716;SDS011;7960;50.908;4.204;2023-08-07T02:41:59;4.83;;;2.20;;
15716;SDS011;7960;50.908;4.204;2023-08-07T02:44:26;3.70;;;2.30;;
15716;SDS011;7960;50.908;4.204;2023-08-07T02:46:54;3.43;;;2.30;;
15716;SDS011;7960;50.908;4.204;2023-08-07T02:49:21;5.47;;;2.23;;
15716;SDS011;7960;50.908;4.204;2023-08-07T02:51:48;6.33;;;2.27;;
15716;SDS011;7960;50.908;4.204;2023-08-07T02:54:15;6.43;;;2.30;;
15716;SDS011;7960;50.908;4.204;2023-08-07T02:56:42;4.70;;;2.70;;
15716;SDS011;7960;50.908;4.204;2023-08-07T02:59:09;5.47;;;3.00;;
15716;SDS011;7960;50.908;4.204;2023-08-07T03:01:35;5.27;;;2.60;;
15716;SDS011;7960;50.908;4.204;2023-08-07T03:04:04;4.60;;;2.37;;
15716;SDS011;7960;50.908;4.204;2023-08-07T03:06:31;4.60;;;2.40;;
15716;SDS011;7960;50.908;4.204;2023-08-07T03:08:58;10.67;;;2.50;;
15716;SDS011;7960;50.908;4.204;2023-08-07T03:11:25;3.50;;;2.10;;
15716;SDS011;7960;50.908;4.204;2023-08-07T03:13:52;5.97;;;2.70;;
15716;SDS011;7960;50.908;4.204;2023-08-07T03:16:19;3.97;;;2.50;;
15716;SDS011;7960;50.908;4.204;2023-08-07T03:18:46;5.73;;;2.60;;
15716;SDS011;7960;50.908;4.204;2023-08-07T03:21:14;6.00;;;2.70;;
15716;SDS011;7960;50.908;4.204;2023-08-07T03:23:41;3.43;;;2.40;;
15716;SDS011;7960;50.908;4.204;2023-08-07T03:26:09;5.03;;;2.30;;
15716;SDS011;7960;50.908;4.204;2023-08-07T03:28:37;5.40;;;2.57;;
15716;SDS011;7960;50.908;4.204;2023-08-07T03:31:04;6.00;;;3.03;;
15716;SDS011;7960;50.908;4.204;2023-08-07T03:33:32;3.93;;;2.37;;
15716;SDS011;7960;50.908;4.204;2023-08-07T03:35:59;4.53;;;2.37;;
15716;SDS011;7960;50.908;4.204;2023-08-07T03:38:27;7.43;;;2.90;;
15716;SDS011;7960;50.908;4.204;2023-08-07T03:40:54;8.03;;;3.30;;
15716;SDS011;7960;50.908;4.204;2023-08-07T03:43:21;6.67;;;2.87;;
15716;SDS011;7960;50.908;4.204;2023-08-07T03:45:53;5.80;;;3.03;;
15716;SDS011;7960;50.908;4.204;2023-08-07T03:48:20;5.13;;;2.57;;
15716;SDS011;7960;50.908;4.204;2023-08-07T03:50:47;7.57;;;3.10;;
15716;SDS011;7960;50.908;4.204;2023-08-07T03:53:14;5.77;;;2.97;;
15716;SDS011;7960;50.908;4.204;2023-08-07T03:55:42;6.57;;;2.80;;
15716;SDS011;7960;50.908;4.204;2023-08-07T03:58:15;7.07;;;3.10;;
15716;SDS011;7960;50.908;4.204;2023-08-07T04:00:41;6.47;;;2.90;;
15716;SDS011;7960;50.908;4.204;2023-08-07T04:03:08;9.83;;;3.10;;
15716;SDS011;7960;50.908;4.204;2023-08-07T04:05:35;8.30;;;3.30;;
15716;SDS011;7960;50.908;4.204;2023-08-07T04:08:02;6.87;;;3.10;;
15716;SDS011;7960;50.908;4.204;2023-08-07T04:10:29;5.70;;;2.97;;
15716;SDS011;7960;50.908;4.204;2023-08-07T04:12:58;7.37;;;3.57;;
15716;SDS011;7960;50.908;4.204;2023-08-07T04:15:25;5.23;;;2.83;;
15716;SDS011;7960;50.908;4.204;2023-08-07T04:17:52;4.87;;;3.03;;
15716;SDS011;7960;50.908;4.204;2023-08-07T04:20:19;8.47;;;3.03;;
15716;SDS011;7960;50.908;4.204;2023-08-07T04:22:46;4.97;;;2.90;;
15716;SDS011;7960;50.908;4.204;2023-08-07T04:25:13;4.60;;;3.00;;
15716;SDS011;7960;50.908;4.204;2023-08-07T04:27:40;7.00;;;3.30;;
15716;SDS011;7960;50.908;4.204;2023-08-07T04:30:09;4.33;;;2.90;;
15716;SDS011;7960;50.908;4.204;2023-08-07T04:32:37;6.00;;;2.83;;
15716;SDS011;7960;50.908;4.204;2023-08-07T04:35:04;6.47;;;2.93;;
15716;SDS011;7960;50.908;4.204;2023-08-07T04:37:32;5.03;;;2.93;;
15716;SDS011;7960;50.908;4.204;2023-08-07T04:39:59;4.67;;;2.73;;
15716;SDS011;7960;50.908;4.204;2023-08-07T04:42:26;6.43;;;2.90;;
15716;SDS011;7960;50.908;4.204;2023-08-07T04:44:53;8.53;;;3.47;;
15716;SDS011;7960;50.908;4.204;2023-08-07T04:47:22;5.70;;;3.00;;
15716;SDS011;7960;50.908;4.204;2023-08-07T04:49:50;6.53;;;3.83;;
15716;SDS011;7960;50.908;4.204;2023-08-07T04:52:17;6.23;;;2.23;;
15716;SDS011;7960;50.908;4.204;2023-08-07T04:54:44;6.40;;;2.33;;
15716;SDS011;7960;50.908;4.204;2023-08-07T04:57:11;5.03;;;3.00;;
15716;SDS011;7960;50.908;4.204;2023-08-07T04:59:38;2.87;;;2.40;;
15716;SDS011;7960;50.908;4.204;2023-08-07T05:02:05;5.50;;;3.10;;
15716;SDS011;7960;50.908;4.204;2023-08-07T05:04:33;9.03;;;2.93;;
15716;SDS011;7960;50.908;4.204;2023-08-07T05:07:00;4.63;;;2.30;;
15716;SDS011;7960;50.908;4.204;2023-08-07T05:09:28;5.50;;;2.70;;
15716;SDS011;7960;50.908;4.204;2023-08-07T05:11:54;6.87;;;2.93;;
15716;SDS011;7960;50.908;4.204;2023-08-07T05:14:21;5.67;;;2.50;;
15716;SDS011;7960;50.908;4.204;2023-08-07T05:16:48;7.77;;;3.50;;
15716;SDS011;7960;50.908;4.204;2023-08-07T05:19:15;5.10;;;2.60;;
15716;SDS011;7960;50.908;4.204;2023-08-07T05:21:43;7.30;;;3.50;;
15716;SDS011;7960;50.908;4.204;2023-08-07T05:24:14;7.30;;;2.67;;
15716;SDS011;7960;50.908;4.204;2023-08-07T05:26:41;4.83;;;2.67;;
15716;SDS011;7960;50.908;4.204;2023-08-07T05:29:08;9.60;;;3.10;;
15716;SDS011;7960;50.908;4.204;2023-08-07T05:31:35;6.37;;;2.67;;
15716;SDS011;7960;50.908;4.204;2023-08-07T05:34:03;6.03;;;3.40;;
15716;SDS011;7960;50.908;4.204;2023-08-07T05:36:30;4.67;;;2.40;;
15716;SDS011;7960;50.908;4.204;2023-08-07T05:38:59;5.23;;;2.90;;
15716;SDS011;7960;50.908;4.204;2023-08-07T05:41:26;6.40;;;3.17;;
15716;SDS011;7960;50.908;4.204;2023-08-07T05:43:53;7.50;;;3.00;;
15716;SDS011;7960;50.908;4.204;2023-08-07T05:46:20;4.07;;;2.87;;
15716;SDS011;7960;50.908;4.204;2023-08-07T05:48:47;6.13;;;3.00;;
15716;SDS011;7960;50.908;4.204;2023-08-07T05:51:14;5.73;;;2.93;;
15716;SDS011;7960;50.908;4.204;2023-08-07T05:53:40;5.73;;;2.90;;
15716;SDS011;7960;50.908;4.204;2023-08-07T05:56:09;7.67;;;3.20;;
15716;SDS011;7960;50.908;4.204;2023-08-07T05:58:36;6.33;;;3.10;;
15716;SDS011;7960;50.908;4.204;2023-08-07T06:01:02;5.93;;;2.73;;
15716;SDS011;7960;50.908;4.204;2023-08-07T06:03:30;9.87;;;3.20;;
15716;SDS011;7960;50.908;4.204;2023-08-07T06:05:57;5.77;;;3.03;;
15716;SDS011;7960;50.908;4.204;2023-08-07T06:08:24;6.17;;;2.90;;
15716;SDS011;7960;50.908;4.204;2023-08-07T06:10:51;6.87;;;3.10;;
15716;SDS011;7960;50.908;4.204;2023-08-07T06:13:20;5.53;;;2.77;;
15716;SDS011;7960;50.908;4.204;2023-08-07T06:15:46;11.77;;;3.30;;
15716;SDS011;7960;50.908;4.204;2023-08-07T06:18:13;8.57;;;2.90;;
15716;SDS011;7960;50.908;4.204;2023-08-07T06:20:40;6.67;;;3.07;;
15716;SDS011;7960;50.908;4.204;2023-08-07T06:23:07;5.20;;;2.80;;
15716;SDS011;7960;50.908;4.204;2023-08-07T06:25:34;6.10;;;3.00;;
15716;SDS011;7960;50.908;4.204;2023-08-07T06:28:01;6.90;;;3.03;;
15716;SDS011;7960;50.908;4.204;2023-08-07T06:30:29;8.00;;;3.13;;
15716;SDS011;7960;50.908;4.204;2023-08-07T06:32:57;6.87;;;3.27;;
15716;SDS011;7960;50.908;4.204;2023-08-07T06:35:24;7.23;;;3.10;;
15716;SDS011;7960;50.908;4.204;2023-08-07T06:37:51;4.20;;;3.10;;
15716;SDS011;7960;50.908;4.204;2023-08-07T06:40:18;6.10;;;3.40;;
15716;SDS011;7960;50.908;4.204;2023-08-07T06:42:45;4.63;;;2.87;;
15716;SDS011;7960;50.908;4.204;2023-08-07T06:45:12;7.63;;;3.00;;
15716;SDS011;7960;50.908;4.204;2023-08-07T06:47:40;7.53;;;2.80;;
15716;SDS011;7960;50.908;4.204;2023-08-07T06:50:07;8.03;;;3.20;;
15716;SDS011;7960;50.908;4.204;2023-08-07T06:52:35;6.47;;;3.10;;
15716;SDS011;7960;50.908;4.204;2023-08-07T06:55:02;6.00;;;2.80;;
15716;SDS011;7960;50.908;4.204;2023-08-07T06:57:29;5.50;;;3.00;;
15716;SDS011;7960;50.908;4.204;2023-08-07T06:59:56;7.67;;;3.03;;
15716;SDS011;7960;50.908;4.204;2023-08-07T07:02:23;6.03;;;3.10;;
15716;SDS011;7960;50.908;4.204;2023-08-07T07:04:52;6.53;;;2.93;;
15716;SDS011;7960;50.908;4.204;2023-08-07T07:07:19;8.23;;;3.20;;
15716;SDS011;7960;50.908;4.204;2023-08-07T07:09:45;8.50;;;3.47;;
15716;SDS011;7960;50.908;4.204;2023-08-07T07:12:12;6.50;;;3.00;;
15716;SDS011;7960;50.908;4.204;2023-08-07T07:14:39;5.53;;;2.70;;
15716;SDS011;7960;50.908;4.204;2023-08-07T07:17:06;8.30;;;2.90;;
15716;SDS011;7960;50.908;4.204;2023-08-07T07:19:33;8.37;;;3.27;;
15716;SDS011;7960;50.908;4.204;2023-08-07T07:22:01;7.73;;;3.60;;
15716;SDS011;7960;50.908;4.204;2023-08-07T07:24:29;6.47;;;3.37;;
15716;SDS011;7960;50.908;4.204;2023-08-07T07:26:56;6.60;;;3.20;;
15716;SDS011;7960;50.908;4.204;2023-08-07T07:29:22;6.27;;;3.20;;
15716;SDS011;7960;50.908;4.204;2023-08-07T07:31:49;6.30;;;2.90;;
15716;SDS011;7960;50.908;4.204;2023-08-07T07:34:16;6.67;;;3.17;;
15716;SDS011;7960;50.908;4.204;2023-08-07T07:36:43;8.83;;;3.30;;
15716;SDS011;7960;50.908;4.204;2023-08-07T07:39:11;7.43;;;3.73;;
15716;SDS011;7960;50.908;4.204;2023-08-07T07:41:38;3.70;;;2.83;;
15716;SDS011;7960;50.908;4.204;2023-08-07T07:44:06;5.47;;;2.70;;
15716;SDS011;7960;50.908;4.204;2023-08-07T07:46:32;4.63;;;2.67;;
15716;SDS011;7960;50.908;4.204;2023-08-07T07:48:59;4.37;;;2.80;;
15716;SDS011;7960;50.908;4.204;2023-08-07T07:51:28;8.83;;;2.70;;
15716;SDS011;7960;50.908;4.204;2023-08-07T07:53:56;3.73;;;2.73;;
15716;SDS011;7960;50.908;4.204;2023-08-07T07:56:25;3.63;;;2.23;;
15716;SDS011;7960;50.908;4.204;2023-08-07T07:58:52;3.83;;;2.60;;
15716;SDS011;7960;50.908;4.204;2023-08-07T08:01:18;5.13;;;2.60;;
15716;SDS011;7960;50.908;4.204;2023-08-07T08:03:47;4.67;;;2.40;;
15716;SDS011;7960;50.908;4.204;2023-08-07T08:06:14;3.20;;;2.10;;
15716;SDS011;7960;50.908;4.204;2023-08-07T08:08:41;3.13;;;2.63;;
15716;SDS011;7960;50.908;4.204;2023-08-07T08:11:08;6.07;;;2.50;;
15716;SDS011;7960;50.908;4.204;2023-08-07T08:13:36;6.63;;;2.60;;
15716;SDS011;7960;50.908;4.204;2023-08-07T08:16:06;4.77;;;2.60;;
15716;SDS011;7960;50.908;4.204;2023-08-07T08:18:33;5.40;;;2.93;;
15716;SDS011;7960;50.908;4.204;2023-08-07T08:21:00;5.10;;;2.73;;
15716;SDS011;7960;50.908;4.204;2023-08-07T08:23:27;3.13;;;2.40;;
15716;SDS011;7960;50.908;4.204;2023-08-07T08:25:54;5.20;;;2.60;;
15716;SDS011;7960;50.908;4.204;2023-08-07T08:28:21;5.87;;;2.60;;
15716;SDS011;7960;50.908;4.204;2023-08-07T08:30:49;4.40;;;2.60;;
15716;SDS011;7960;50.908;4.204;2023-08-07T08:33:16;6.40;;;2.80;;
15716;SDS011;7960;50.908;4.204;2023-08-07T08:35:43;7.77;;;2.87;;
15716;SDS011;7960;50.908;4.204;2023-08-07T08:38:10;6.13;;;2.90;;
15716;SDS011;7960;50.908;4.204;2023-08-07T08:40:38;9.33;;;3.10;;
15716;SDS011;7960;50.908;4.204;2023-08-07T08:43:05;4.00;;;2.40;;
15716;SDS011;7960;50.908;4.204;2023-08-07T08:45:32;5.67;;;3.10;;
15716;SDS011;7960;50.908;4.204;2023-08-07T08:48:04;5.80;;;2.67;;
15716;SDS011;7960;50.908;4.204;2023-08-07T08:50:33;3.03;;;2.50;;
15716;SDS011;7960;50.908;4.204;2023-08-07T08:53:01;6.50;;;2.47;;
15716;SDS011;7960;50.908;4.204;2023-08-07T08:55:30;6.37;;;3.10;;
15716;SDS011;7960;50.908;4.204;2023-08-07T08:57:57;5.70;;;2.80;;
15716;SDS011;7960;50.908;4.204;2023-08-07T09:00:26;4.73;;;2.40;;
15716;SDS011;7960;50.908;4.204;2023-08-07T09:02:54;4.73;;;2.70;;
15716;SDS011;7960;50.908;4.204;2023-08-07T09:05:23;3.47;;;2.50;;
15716;SDS011;7960;50.908;4.204;2023-08-07T09:07:49;4.83;;;2.60;;
15716;SDS011;7960;50.908;4.204;2023-08-07T09:10:16;6.43;;;3.20;;
15716;SDS011;7960;50.908;4.204;2023-08-07T09:12:45;6.17;;;2.60;;
15716;SDS011;7960;50.908;4.204;2023-08-07T09:15:17;3.83;;;2.40;;
15716;SDS011;7960;50.908;4.204;2023-08-07T09:17:45;6.00;;;2.60;;
15716;SDS011;7960;50.908;4.204;2023-08-07T09:20:14;3.17;;;2.40;;
15716;SDS011;7960;50.908;4.204;2023-08-07T09:22:42;2.80;;;2.17;;
15716;SDS011;7960;50.908;4.204;2023-08-07T09:25:09;4.73;;;2.63;;
15716;SDS011;7960;50.908;4.204;2023-08-07T09:27:36;3.30;;;2.47;;
15716;SDS011;7960;50.908;4.204;2023-08-07T09:30:05;3.33;;;2.53;;
15716;SDS011;7960;50.908;4.204;2023-08-07T09:32:34;6.70;;;3.27;;
15716;SDS011;7960;50.908;4.204;2023-08-07T09:35:02;3.90;;;2.43;;
15716;SDS011;7960;50.908;4.204;2023-08-07T09:37:30;4.00;;;2.27;;
15716;SDS011;7960;50.908;4.204;2023-08-07T09:40:00;3.90;;;2.50;;
15716;SDS011;7960;50.908;4.204;2023-08-07T09:42:30;4.57;;;2.13;;
15716;SDS011;7960;50.908;4.204;2023-08-07T09:44:59;3.87;;;1.97;;
15716;SDS011;7960;50.908;4.204;2023-08-07T09:47:26;3.07;;;2.27;;
15716;SDS011;7960;50.908;4.204;2023-08-07T09:49:55;4.10;;;2.43;;
15716;SDS011;7960;50.908;4.204;2023-08-07T09:52:22;5.23;;;2.37;;
15716;SDS011;7960;50.908;4.204;2023-08-07T09:54:51;3.67;;;2.10;;
15716;SDS011;7960;50.908;4.204;2023-08-07T09:57:22;5.90;;;2.43;;
15716;SDS011;7960;50.908;4.204;2023-08-07T09:59:49;3.43;;;2.10;;
15716;SDS011;7960;50.908;4.204;2023-08-07T10:02:17;4.00;;;2.30;;
15716;SDS011;7960;50.908;4.204;2023-08-07T10:04:45;6.43;;;2.10;;
15716;SDS011;7960;50.908;4.204;2023-08-07T10:07:13;2.70;;;2.23;;
15716;SDS011;7960;50.908;4.204;2023-08-07T10:09:41;2.03;;;1.80;;
15716;SDS011;7960;50.908;4.204;2023-08-07T10:12:09;3.77;;;2.17;;
15716;SDS011;7960;50.908;4.204;2023-08-07T10:14:38;3.60;;;2.17;;
15716;SDS011;7960;50.908;4.204;2023-08-07T10:17:07;5.83;;;2.00;;
15716;SDS011;7960;50.908;4.204;2023-08-07T10:19:35;3.57;;;2.00;;
15716;SDS011;7960;50.908;4.204;2023-08-07T10:22:04;2.93;;;2.30;;
15716;SDS011;7960;50.908;4.204;2023-08-07T10:24:32;2.97;;;2.20;;
15716;SDS011;7960;50.908;4.204;2023-08-07T10:27:03;4.13;;;2.30;;
15716;SDS011;7960;50.908;4.204;2023-08-07T10:29:31;3.63;;;2.10;;
15716;SDS011;7960;50.908;4.204;2023-08-07T10:32:01;4.13;;;2.30;;
15716;SDS011;7960;50.908;4.204;2023-08-07T10:34:30;3.33;;;2.30;;
15716;SDS011;7960;50.908;4.204;2023-08-07T10:36:59;3.53;;;2.10;;
15716;SDS011;7960;50.908;4.204;2023-08-07T10:39:26;2.10;;;1.90;;
15716;SDS011;7960;50.908;4.204;2023-08-07T10:41:53;2.67;;;2.20;;
15716;SDS011;7960;50.908;4.204;2023-08-07T10:44:21;4.47;;;2.30;;
15716;SDS011;7960;50.908;4.204;2023-08-07T10:46:49;4.27;;;2.40;;
15716;SDS011;7960;50.908;4.204;2023-08-07T10:49:31;4.57;;;2.60;;
15716;SDS011;7960;50.908;4.204;2023-08-07T10:52:02;4.07;;;2.20;;
15716;SDS011;7960;50.908;4.204;2023-08-07T10:54:29;3.10;;;2.47;;
15716;SDS011;7960;50.908;4.204;2023-08-07T10:56:56;3.30;;;2.13;;
15716;SDS011;7960;50.908;4.204;2023-08-07T10:59:27;2.40;;;2.17;;
15716;SDS011;7960;50.908;4.204;2023-08-07T11:01:56;2.60;;;2.30;;
15716;SDS011;7960;50.908;4.204;2023-08-07T11:04:24;3.77;;;2.27;;
15716;SDS011;7960;50.908;4.204;2023-08-07T11:06:53;3.60;;;2.30;;
15716;SDS011;7960;50.908;4.204;2023-08-07T11:09:20;4.10;;;2.33;;
15716;SDS011;7960;50.908;4.204;2023-08-07T11:11:48;3.13;;;2.57;;
15716;SDS011;7960;50.908;4.204;2023-08-07T11:14:15;3.30;;;2.40;;
15716;SDS011;7960;50.908;4.204;2023-08-07T11:16:43;3.57;;;2.43;;
15716;SDS011;7960;50.908;4.204;2023-08-07T11:19:11;4.90;;;2.53;;
15716;SDS011;7960;50.908;4.204;2023-08-07T11:21:40;2.93;;;2.23;;
15716;SDS011;7960;50.908;4.204;2023-08-07T11:24:11;3.27;;;2.30;;
15716;SDS011;7960;50.908;4.204;2023-08-07T11:26:39;4.23;;;2.63;;
15716;SDS011;7960;50.908;4.204;2023-08-07T11:29:08;2.60;;;2.30;;
15716;SDS011;7960;50.908;4.204;2023-08-07T11:31:35;4.07;;;2.43;;
15716;SDS011;7960;50.908;4.204;2023-08-07T11:34:02;2.83;;;2.27;;
15716;SDS011;7960;50.908;4.204;2023-08-07T11:36:28;5.13;;;2.43;;
15716;SDS011;7960;50.908;4.204;2023-08-07T11:38:56;2.90;;;2.10;;
15716;SDS011;7960;50.908;4.204;2023-08-07T11:41:25;3.90;;;2.30;;
15716;SDS011;7960;50.908;4.204;2023-08-07T11:43:51;3.87;;;2.60;;
15716;SDS011;7960;50.908;4.204;2023-08-07T11:46:18;4.37;;;2.17;;
15716;SDS011;7960;50.908;4.204;2023-08-07T11:48:45;4.63;;;2.40;;
15716;SDS011;7960;50.908;4.204;2023-08-07T11:51:12;2.70;;;2.30;;
15716;SDS011;7960;50.908;4.204;2023-08-07T11:53:40;3.30;;;2.13;;
15716;SDS011;7960;50.908;4.204;2023-08-07T11:56:08;3.27;;;2.30;;
15716;SDS011;7960;50.908;4.204;2023-08-07T11:58:38;2.53;;;2.20;;
15716;SDS011;7960;50.908;4.204;2023-08-07T12:01:05;3.83;;;2.27;;
15716;SDS011;7960;50.908;4.204;2023-08-07T12:03:35;4.37;;;2.70;;
15716;SDS011;7960;50.908;4.204;2023-08-07T12:06:04;3.20;;;2.10;;
15716;SDS011;7960;50.908;4.204;2023-08-07T12:08:32;3.63;;;2.40;;
15716;SDS011;7960;50.908;4.204;2023-08-07T12:11:01;2.77;;;1.80;;
15716;SDS011;7960;50.908;4.204;2023-08-07T12:13:29;4.40;;;2.17;;
15716;SDS011;7960;50.908;4.204;2023-08-07T12:15:58;4.17;;;2.03;;
15716;SDS011;7960;50.908;4.204;2023-08-07T12:18:26;2.03;;;1.90;;
15716;SDS011;7960;50.908;4.204;2023-08-07T12:20:56;2.93;;;1.83;;
15716;SDS011;7960;50.908;4.204;2023-08-07T12:23:24;4.00;;;2.50;;
15716;SDS011;7960;50.908;4.204;2023-08-07T12:25:51;4.17;;;2.20;;
15716;SDS011;7960;50.908;4.204;2023-08-07T12:28:18;2.30;;;2.10;;
15716;SDS011;7960;50.908;4.204;2023-08-07T12:30:46;2.87;;;2.40;;
15716;SDS011;7960;50.908;4.204;2023-08-07T12:33:15;3.00;;;2.23;;
15716;SDS011;7960;50.908;4.204;2023-08-07T12:35:42;3.07;;;1.80;;
15716;SDS011;7960;50.908;4.204;2023-08-07T12:38:09;3.30;;;2.07;;
15716;SDS011;7960;50.908;4.204;2023-08-07T12:40:38;2.33;;;2.13;;
15716;SDS011;7960;50.908;4.204;2023-08-07T12:43:06;1.80;;;1.70;;
15716;SDS011;7960;50.908;4.204;2023-08-07T12:45:33;2.63;;;1.90;;
15716;SDS011;7960;50.908;4.204;2023-08-07T12:48:00;2.00;;;1.70;;
15716;SDS011;7960;50.908;4.204;2023-08-07T12:50:29;3.83;;;1.97;;
15716;SDS011;7960;50.908;4.204;2023-08-07T12:52:56;2.50;;;1.80;;
15716;SDS011;7960;50.908;4.204;2023-08-07T12:55:23;3.93;;;1.90;;
15716;SDS011;7960;50.908;4.204;2023-08-07T12:57:51;2.67;;;1.70;;
15716;SDS011;7960;50.908;4.204;2023-08-07T13:00:19;1.73;;;1.50;;
15716;SDS011;7960;50.908;4.204;2023-08-07T13:02:46;5.07;;;1.60;;
15716;SDS011;7960;50.908;4.204;2023-08-07T13:05:15;4.17;;;1.50;;
15716;SDS011;7960;50.908;4.204;2023-08-07T13:07:45;2.60;;;1.70;;
15716;SDS011;7960;50.908;4.204;2023-08-07T13:10:13;5.00;;;1.97;;
15716;SDS011;7960;50.908;4.204;2023-08-07T13:12:42;3.40;;;1.63;;
15716;SDS011;7960;50.908;4.204;2023-08-07T13:15:13;3.87;;;1.50;;
15716;SDS011;7960;50.908;4.204;2023-08-07T13:17:41;3.87;;;1.80;;
15716;SDS011;7960;50.908;4.204;2023-08-07T13:20:09;2.13;;;1.73;;
15716;SDS011;7960;50.908;4.204;2023-08-07T13:22:38;5.53;;;1.70;;
15716;SDS011;7960;50.908;4.204;2023-08-07T13:25:07;2.93;;;1.47;;
15716;SDS011;7960;50.908;4.204;2023-08-07T13:27:35;2.90;;;1.57;;
15716;SDS011;7960;50.908;4.204;2023-08-07T13:30:02;3.60;;;1.57;;
15716;SDS011;7960;50.908;4.204;2023-08-07T13:32:30;1.83;;;1.73;;
15716;SDS011;7960;50.908;4.204;2023-08-07T13:34:57;2.07;;;1.50;;
15716;SDS011;7960;50.908;4.204;2023-08-07T13:37:24;3.00;;;2.03;;
15716;SDS011;7960;50.908;4.204;2023-08-07T13:39:51;4.73;;;1.40;;
15716;SDS011;7960;50.908;4.204;2023-08-07T13:42:23;2.17;;;1.50;;
15716;SDS011;7960;50.908;4.204;2023-08-07T13:44:50;2.40;;;1.57;;
15716;SDS011;7960;50.908;4.204;2023-08-07T13:47:17;1.97;;;1.37;;
15716;SDS011;7960;50.908;4.204;2023-08-07T13:49:45;2.20;;;1.70;;
15716;SDS011;7960;50.908;4.204;2023-08-07T13:52:13;2.40;;;1.60;;
15716;SDS011;7960;50.908;4.204;2023-08-07T13:54:40;2.10;;;1.47;;
15716;SDS011;7960;50.908;4.204;2023-08-07T13:57:07;2.53;;;1.70;;
15716;SDS011;7960;50.908;4.204;2023-08-07T13:59:35;1.83;;;1.30;;
15716;SDS011;7960;50.908;4.204;2023-08-07T14:02:02;2.17;;;1.40;;
15716;SDS011;7960;50.908;4.204;2023-08-07T14:04:29;1.50;;;1.40;;
15716;SDS011;7960;50.908;4.204;2023-08-07T14:06:57;2.07;;;1.50;;
15716;SDS011;7960;50.908;4.204;2023-08-07T14:09:24;1.90;;;1.50;;
15716;SDS011;7960;50.908;4.204;2023-08-07T14:11:51;1.77;;;1.43;;
15716;SDS011;7960;50.908;4.204;2023-08-07T14:14:18;1.50;;;1.40;;
15716;SDS011;7960;50.908;4.204;2023-08-07T14:16:46;2.63;;;1.50;;
15716;SDS011;7960;50.908;4.204;2023-08-07T14:19:14;2.47;;;1.63;;
15716;SDS011;7960;50.908;4.204;2023-08-07T14:21:41;5.60;;;1.47;;
15716;SDS011;7960;50.908;4.204;2023-08-07T14:24:08;6.50;;;3.60;;
15716;SDS011;7960;50.908;4.204;2023-08-07T14:26:34;4.90;;;1.60;;
15716;SDS011;7960;50.908;4.204;2023-08-07T14:29:02;1.90;;;1.37;;
15716;SDS011;7960;50.908;4.204;2023-08-07T14:31:29;1.90;;;1.37;;
15716;SDS011;7960;50.908;4.204;2023-08-07T14:33:57;2.50;;;1.60;;
15716;SDS011;7960;50.908;4.204;2023-08-07T14:36:24;3.03;;;1.37;;
15716;SDS011;7960;50.908;4.204;2023-08-07T14:38:51;2.23;;;1.60;;
15716;SDS011;7960;50.908;4.204;2023-08-07T14:41:18;1.77;;;1.30;;
15716;SDS011;7960;50.908;4.204;2023-08-07T14:43:45;3.20;;;1.70;;
15716;SDS011;7960;50.908;4.204;2023-08-07T14:46:12;3.97;;;1.50;;
15716;SDS011;7960;50.908;4.204;2023-08-07T14:48:39;1.93;;;1.70;;
15716;SDS011;7960;50.908;4.204;2023-08-07T14:51:08;2.90;;;1.60;;
15716;SDS011;7960;50.908;4.204;2023-08-07T14:53:34;2.53;;;1.63;;
15716;SDS011;7960;50.908;4.204;2023-08-07T14:56:01;1.63;;;1.53;;
15716;SDS011;7960;50.908;4.204;2023-08-07T14:58:29;2.00;;;1.40;;
15716;SDS011;7960;50.908;4.204;2023-08-07T15:00:57;1.57;;;1.40;;
15716;SDS011;7960;50.908;4.204;2023-08-07T15:03:24;4.47;;;1.50;;